Time;durP1;ratioP1;P1;durP2;ratioP2;P2;SDS_P1;SDS_P2;PMS_P1;PMS_P2;Temp;Humidity;BMP_temperature;BMP_pressure;BME280_temperature;BME280_humidity;BME280_pressure;Samples;Min_cycle;Max_cycle;Signal;HPM_P1;HPM_P2
2022/07/27 00:00:42;;;;;;;2.17;1.43;;;;;;;;;;4976414;28;20428;-89
2022/07/27 00:03:07;;;;;;;1.27;1.20;;;;;;;;;;4999031;28;20464;-88
2022/07/27 00:05:33;;;;;;;1.23;1.10;;;;;;;;;;4995278;28;20406;-90
2022/07/27 00:07:59;;;;;;;2.53;0.90;;;;;;;;;;5009731;28;20474;-88
2022/07/27 00:10:25;;;;;;;2.33;1.43;;;;;;;;;;5012092;28;20506;-91
2022/07/27 00:12:51;;;;;;;1.23;1.07;;;;;;;;;;4987994;28;20439;-90
2022/07/27 00:15:17;;;;;;;6.13;1.90;;;;;;;;;;5014096;28;20431;-90
2022/07/27 00:17:43;;;;;;;1.40;1.40;;;;;;;;;;4994420;28;20447;-89
2022/07/27 00:20:09;;;;;;;1.13;1.13;;;;;;;;;;4995250;28;20829;-89
2022/07/27 00:22:35;;;;;;;1.60;1.17;;;;;;;;;;5008864;28;20630;-90
2022/07/27 00:25:01;;;;;;;1.17;1.10;;;;;;;;;;5009337;28;20526;-90
2022/07/27 00:27:27;;;;;;;1.90;1.23;;;;;;;;;;5023316;28;20502;-90
2022/07/27 00:29:53;;;;;;;1.60;1.07;;;;;;;;;;5011275;28;20439;-89
2022/07/27 00:32:19;;;;;;;1.33;1.33;;;;;;;;;;5013675;28;20948;-90
2022/07/27 00:34:46;;;;;;;1.30;1.30;;;;;;;;;;5019002;28;20474;-90
2022/07/27 00:37:12;;;;;;;2.10;1.57;;;;;;;;;;5017901;28;20463;-90
2022/07/27 00:39:38;;;;;;;1.37;1.37;;;;;;;;;;5010760;28;20448;-90
2022/07/27 00:42:04;;;;;;;1.27;1.27;;;;;;;;;;5011778;28;20476;-90
2022/07/27 00:44:32;;;;;;;1.90;1.80;;;;;;;;;;4997948;28;20436;-89
2022/07/27 00:46:58;;;;;;;1.80;1.20;;;;;;;;;;5003093;28;20439;-90
2022/07/27 00:49:27;;;;;;;1.30;1.27;;;;;;;;;;4988198;28;20933;-90
2022/07/27 00:51:53;;;;;;;2.10;1.13;;;;;;;;;;4995814;28;20429;-89
2022/07/27 00:54:20;;;;;;;1.67;1.40;;;;;;;;;;4992819;28;20985;-91
2022/07/27 00:56:46;;;;;;;0.97;0.97;;;;;;;;;;5015975;28;20972;-89
2022/07/27 00:59:13;;;;;;;1.20;1.10;;;;;;;;;;5016406;28;20444;-89
2022/07/27 01:01:39;;;;;;;1.40;1.30;;;;;;;;;;5010609;28;20474;-90
2022/07/27 01:04:05;;;;;;;1.50;1.40;;;;;;;;;;4978720;28;20450;-89
2022/07/27 01:06:32;;;;;;;1.60;1.50;;;;;;;;;;5019217;28;20804;-90
2022/07/27 01:11:43;;;;;;;1.63;1.53;;;;;;;;;;4992182;28;20471;-90
2022/07/27 01:14:12;;;;;;;1.30;1.07;;;;;;;;;;4984670;28;20929;-90
2022/07/27 01:16:38;;;;;;;1.20;1.20;;;;;;;;;;5009061;28;20459;-88
2022/07/27 01:19:04;;;;;;;1.20;1.20;;;;;;;;;;4990156;28;20439;-89
2022/07/27 01:21:34;;;;;;;2.67;1.40;;;;;;;;;;5007534;28;20464;-90
2022/07/27 01:24:00;;;;;;;2.57;2.30;;;;;;;;;;5004602;28;20936;-88
2022/07/27 01:26:26;;;;;;;1.87;1.30;;;;;;;;;;5007039;28;20987;-89
2022/07/27 01:28:55;;;;;;;1.67;1.57;;;;;;;;;;5009906;28;20436;-89
2022/07/27 01:31:21;;;;;;;2.63;1.13;;;;;;;;;;4974612;28;21028;-89
2022/07/27 01:33:47;;;;;;;1.90;1.30;;;;;;;;;;5006502;28;20451;-89
2022/07/27 01:36:13;;;;;;;3.83;1.63;;;;;;;;;;5016656;28;20530;-88
2022/07/27 01:38:39;;;;;;;1.63;1.60;;;;;;;;;;5003676;28;20459;-89
2022/07/27 01:41:05;;;;;;;1.23;1.23;;;;;;;;;;5008675;28;20419;-91
2022/07/27 01:43:31;;;;;;;1.57;1.50;;;;;;;;;;5008681;28;20439;-89
2022/07/27 01:45:58;;;;;;;2.00;1.90;;;;;;;;;;5010330;28;20950;-90
2022/07/27 01:48:24;;;;;;;1.40;1.40;;;;;;;;;;4989206;28;20447;-89
2022/07/27 01:50:50;;;;;;;2.93;1.40;;;;;;;;;;5004173;28;20438;-90
2022/07/27 01:53:16;;;;;;;1.57;1.47;;;;;;;;;;5012333;28;20430;-89
2022/07/27 01:55:42;;;;;;;2.83;1.47;;;;;;;;;;5012790;28;20408;-90
2022/07/27 01:58:09;;;;;;;2.03;1.73;;;;;;;;;;4989039;28;20584;-91
2022/07/27 02:00:35;;;;;;;1.57;1.57;;;;;;;;;;5011537;28;20929;-91
2022/07/27 02:03:02;;;;;;;1.50;1.40;;;;;;;;;;5003855;28;20475;-91
2022/07/27 02:05:28;;;;;;;2.43;1.57;;;;;;;;;;4997709;28;21150;-89
2022/07/27 02:07:54;;;;;;;2.23;1.93;;;;;;;;;;5008417;28;20514;-90
2022/07/27 02:10:20;;;;;;;1.37;1.37;;;;;;;;;;5015273;28;20497;-89
2022/07/27 02:12:46;;;;;;;1.70;1.23;;;;;;;;;;5009566;28;20423;-90
2022/07/27 02:15:13;;;;;;;1.67;1.60;;;;;;;;;;4997849;28;20427;-90
2022/07/27 02:17:39;;;;;;;2.10;1.90;;;;;;;;;;5009334;28;20488;-89
2022/07/27 02:20:06;;;;;;;2.37;1.37;;;;;;;;;;5005308;28;20470;-90
2022/07/27 02:22:33;;;;;;;1.70;1.70;;;;;;;;;;5010080;28;20508;-90
2022/07/27 02:24:59;;;;;;;2.20;2.20;;;;;;;;;;5004610;28;20522;-91
2022/07/27 02:27:25;;;;;;;1.70;1.57;;;;;;;;;;5007989;28;20435;-91
2022/07/27 02:29:52;;;;;;;2.20;2.10;;;;;;;;;;5008758;28;21030;-90
2022/07/27 02:32:18;;;;;;;1.90;1.80;;;;;;;;;;5024422;28;20439;-91
2022/07/27 02:34:44;;;;;;;1.70;1.70;;;;;;;;;;4977466;28;20447;-89
2022/07/27 02:37:10;;;;;;;1.70;1.70;;;;;;;;;;5000860;28;20554;-90
2022/07/27 02:39:36;;;;;;;1.80;1.80;;;;;;;;;;5008122;28;20450;-90
2022/07/27 02:42:02;;;;;;;2.00;1.90;;;;;;;;;;5009292;28;20470;-91
2022/07/27 02:44:29;;;;;;;3.20;1.87;;;;;;;;;;5010422;28;20452;-90
2022/07/27 02:46:55;;;;;;;1.97;1.80;;;;;;;;;;5023722;28;20423;-90
2022/07/27 02:49:21;;;;;;;2.60;1.90;;;;;;;;;;4667517;28;10000329;-89
2022/07/27 02:51:50;;;;;;;2.40;1.83;;;;;;;;;;4991223;28;20188;-90
2022/07/27 02:54:17;;;;;;;4.63;1.53;;;;;;;;;;4997674;28;20478;-90
2022/07/27 02:56:43;;;;;;;1.80;1.70;;;;;;;;;;4991535;28;20444;-90
2022/07/27 02:59:09;;;;;;;4.70;1.90;;;;;;;;;;4990341;28;20435;-90
2022/07/27 03:01:35;;;;;;;2.10;1.60;;;;;;;;;;4996927;28;20561;-89
2022/07/27 03:04:01;;;;;;;2.83;1.70;;;;;;;;;;5004914;28;20455;-90
2022/07/27 03:06:27;;;;;;;2.20;2.10;;;;;;;;;;4982031;28;20443;-89
2022/07/27 03:08:53;;;;;;;1.93;1.83;;;;;;;;;;4999948;28;20447;-90
2022/07/27 03:11:19;;;;;;;3.03;2.00;;;;;;;;;;5009510;28;20427;-91
2022/07/27 03:13:45;;;;;;;3.40;2.13;;;;;;;;;;5004867;28;20427;-89
2022/07/27 03:16:11;;;;;;;1.90;1.77;;;;;;;;;;5011669;28;20725;-88
2022/07/27 03:18:37;;;;;;;2.50;2.30;;;;;;;;;;5012562;28;20509;-89
2022/07/27 03:21:03;;;;;;;3.57;2.33;;;;;;;;;;4999025;28;20448;-90
2022/07/27 03:23:29;;;;;;;2.33;2.13;;;;;;;;;;4988644;28;20420;-91
2022/07/27 03:25:55;;;;;;;2.73;1.57;;;;;;;;;;5005185;28;21060;-90
2022/07/27 03:28:21;;;;;;;2.53;2.17;;;;;;;;;;4996096;28;20427;-89
2022/07/27 03:30:47;;;;;;;2.40;2.30;;;;;;;;;;5010797;28;20759;-90
2022/07/27 03:33:13;;;;;;;1.87;1.87;;;;;;;;;;4980587;28;20962;-89
2022/07/27 03:35:39;;;;;;;2.40;2.30;;;;;;;;;;4995174;28;20498;-88
2022/07/27 03:38:05;;;;;;;3.03;2.10;;;;;;;;;;5020540;28;20527;-87
2022/07/27 03:40:32;;;;;;;2.20;2.20;;;;;;;;;;5009311;28;20521;-90
2022/07/27 03:42:58;;;;;;;3.17;2.50;;;;;;;;;;5022776;28;20474;-90
2022/07/27 03:45:24;;;;;;;2.50;2.40;;;;;;;;;;4995550;28;20447;-89
2022/07/27 03:47:50;;;;;;;2.30;2.20;;;;;;;;;;5027733;28;20431;-89
2022/07/27 03:50:16;;;;;;;5.17;3.10;;;;;;;;;;5017589;28;20436;-89
2022/07/27 03:52:42;;;;;;;2.83;2.60;;;;;;;;;;5021783;28;20443;-89
2022/07/27 03:55:08;;;;;;;2.57;2.47;;;;;;;;;;5026137;28;20431;-89
2022/07/27 03:57:34;;;;;;;6.10;2.53;;;;;;;;;;5023269;28;20431;-89
2022/07/27 04:00:00;;;;;;;1.97;1.90;;;;;;;;;;4998162;28;20519;-88
2022/07/27 04:02:28;;;;;;;2.80;2.13;;;;;;;;;;5027351;28;20983;-89
2022/07/27 04:04:55;;;;;;;2.53;2.43;;;;;;;;;;4979961;28;20460;-90
2022/07/27 04:07:21;;;;;;;3.20;3.03;;;;;;;;;;4996447;28;20427;-90
2022/07/27 04:09:46;;;;;;;3.63;2.50;;;;;;;;;;4988850;28;20436;-90
2022/07/27 04:12:12;;;;;;;2.37;2.27;;;;;;;;;;5013620;28;20832;-90
2022/07/27 04:14:38;;;;;;;3.43;2.07;;;;;;;;;;5015202;28;20483;-89
2022/07/27 04:17:04;;;;;;;2.97;2.77;;;;;;;;;;5016953;28;20434;-90
2022/07/27 04:19:30;;;;;;;2.47;2.37;;;;;;;;;;5013611;28;20431;-89
2022/07/27 04:21:56;;;;;;;2.40;2.30;;;;;;;;;;5036855;28;20814;-88
2022/07/27 04:24:22;;;;;;;3.23;2.30;;;;;;;;;;5013593;28;20518;-89
2022/07/27 04:26:48;;;;;;;2.57;2.37;;;;;;;;;;5011795;28;20431;-91
2022/07/27 04:29:14;;;;;;;2.30;1.97;;;;;;;;;;5021431;28;20423;-88
2022/07/27 04:31:40;;;;;;;2.60;2.40;;;;;;;;;;5003898;28;20438;-90
2022/07/27 04:34:06;;;;;;;2.00;1.90;;;;;;;;;;5017183;28;20455;-89
2022/07/27 04:36:32;;;;;;;2.77;2.77;;;;;;;;;;5012239;28;20450;-90
2022/07/27 04:38:58;;;;;;;3.90;2.83;;;;;;;;;;4988803;28;20848;-89
2022/07/27 04:41:24;;;;;;;1.90;1.90;;;;;;;;;;5003129;28;20456;-87
2022/07/27 04:43:51;;;;;;;10.30;2.50;;;;;;;;;;5007268;28;20427;-89
2022/07/27 04:46:17;;;;;;;2.50;2.50;;;;;;;;;;5022102;28;20414;-89
2022/07/27 04:48:43;;;;;;;2.93;2.53;;;;;;;;;;5017756;28;20451;-88
2022/07/27 04:51:12;;;;;;;3.73;3.33;;;;;;;;;;4993187;28;20441;-89
2022/07/27 04:53:39;;;;;;;2.10;2.10;;;;;;;;;;4993328;28;20682;-90
2022/07/27 04:56:05;;;;;;;2.73;2.13;;;;;;;;;;4994872;28;20412;-88
2022/07/27 04:58:31;;;;;;;1.83;1.83;;;;;;;;;;4985628;28;20425;-90
2022/07/27 05:00:57;;;;;;;2.87;2.67;;;;;;;;;;4994556;28;20452;-91
2022/07/27 05:03:23;;;;;;;2.03;1.93;;;;;;;;;;5004832;28;20455;-90
2022/07/27 05:05:49;;;;;;;3.20;2.13;;;;;;;;;;5012688;28;20435;-90
2022/07/27 05:08:15;;;;;;;2.47;2.30;;;;;;;;;;5024969;28;20806;-88
2022/07/27 05:10:41;;;;;;;2.23;2.13;;;;;;;;;;5017505;28;20439;-91
2022/07/27 05:13:07;;;;;;;3.10;2.90;;;;;;;;;;5026591;28;20439;-90
2022/07/27 05:15:33;;;;;;;3.10;2.23;;;;;;;;;;5016414;28;20420;-89
2022/07/27 05:17:59;;;;;;;3.43;3.13;;;;;;;;;;5017115;28;20427;-90
2022/07/27 05:20:25;;;;;;;2.40;2.30;;;;;;;;;;4986232;28;20436;-92
2022/07/27 05:22:54;;;;;;;3.13;2.37;;;;;;;;;;5005699;28;20474;-90
2022/07/27 05:25:24;;;;;;;1.90;1.73;;;;;;;;;;4996675;28;20872;-90
2022/07/27 05:27:50;;;;;;;3.47;2.10;;;;;;;;;;5009244;28;20439;-91
2022/07/27 05:30:18;;;;;;;1.70;1.70;;;;;;;;;;5017398;28;20468;-92
2022/07/27 05:33:04;;;;;;;1.97;1.97;;;;;;;;;;5272698;23;20710;-90
2022/07/27 05:35:31;;;;;;;2.97;2.57;;;;;;;;;;5024797;23;20483;-87
2022/07/27 05:37:57;;;;;;;2.10;2.10;;;;;;;;;;5005344;28;20943;-89
2022/07/27 05:40:23;;;;;;;2.13;2.03;;;;;;;;;;4980866;28;20533;-88
2022/07/27 05:42:49;;;;;;;2.80;2.63;;;;;;;;;;4991062;28;20989;-88
2022/07/27 05:45:16;;;;;;;2.13;2.00;;;;;;;;;;4995772;28;20489;-90
2022/07/27 05:47:41;;;;;;;2.70;2.60;;;;;;;;;;4995660;28;20446;-89
2022/07/27 05:50:08;;;;;;;2.60;2.40;;;;;;;;;;4981058;28;20948;-90
2022/07/27 05:52:34;;;;;;;3.60;3.30;;;;;;;;;;4993617;28;20463;-89
2022/07/27 05:55:00;;;;;;;3.10;2.90;;;;;;;;;;4990837;28;20473;-86
2022/07/27 05:57:26;;;;;;;2.23;2.23;;;;;;;;;;4992444;28;20511;-89
2022/07/27 05:59:53;;;;;;;3.10;2.67;;;;;;;;;;4988345;28;20439;-89
2022/07/27 06:02:20;;;;;;;2.00;2.00;;;;;;;;;;5005752;28;20526;-88
2022/07/27 06:04:46;;;;;;;17.20;3.70;;;;;;;;;;4988078;28;20570;-89
2022/07/27 06:09:57;;;;;;;5.63;2.30;;;;;;;;;;4980317;28;20523;-88
2022/07/27 06:12:23;;;;;;;4.53;2.90;;;;;;;;;;4972758;28;20447;-88
2022/07/27 06:14:49;;;;;;;2.67;2.47;;;;;;;;;;4991015;28;20444;-89
2022/07/27 06:17:15;;;;;;;3.13;1.97;;;;;;;;;;4972517;28;20463;-89
2022/07/27 06:19:44;;;;;;;1.60;1.53;;;;;;;;;;4989284;28;20519;-89
2022/07/27 06:22:10;;;;;;;1.93;1.77;;;;;;;;;;4984603;28;20990;-88
2022/07/27 06:24:36;;;;;;;2.33;1.50;;;;;;;;;;4982819;28;20444;-89
2022/07/27 06:27:02;;;;;;;2.53;2.30;;;;;;;;;;4979890;28;20415;-89
2022/07/27 06:29:28;;;;;;;1.80;1.50;;;;;;;;;;4984104;28;20449;-89
2022/07/27 06:31:54;;;;;;;1.47;1.30;;;;;;;;;;4973662;28;20436;-89
2022/07/27 06:34:32;;;;;;;3.50;1.87;;;;;;;;;;4986165;28;20443;-88
2022/07/27 06:36:59;;;;;;;2.57;1.70;;;;;;;;;;4992402;28;20475;-88
2022/07/27 06:39:25;;;;;;;2.50;2.30;;;;;;;;;;4986908;28;20458;-88
2022/07/27 06:41:51;;;;;;;2.00;1.90;;;;;;;;;;4967570;28;20555;-88
2022/07/27 06:44:17;;;;;;;2.40;1.40;;;;;;;;;;4981172;28;20467;-87
2022/07/27 06:46:45;;;;;;;3.20;1.93;;;;;;;;;;4981673;28;20420;-89
2022/07/27 06:49:11;;;;;;;2.73;2.10;;;;;;;;;;4977689;28;21012;-89
2022/07/27 06:51:37;;;;;;;2.30;2.10;;;;;;;;;;4995534;28;20420;-90
2022/07/27 06:54:04;;;;;;;4.90;1.87;;;;;;;;;;4976550;28;20452;-87
2022/07/27 06:56:31;;;;;;;1.80;1.27;;;;;;;;;;4984324;28;20454;-89
2022/07/27 06:58:57;;;;;;;3.53;1.40;;;;;;;;;;4993838;28;20946;-89
2022/07/27 07:01:23;;;;;;;2.27;2.17;;;;;;;;;;4986061;28;20447;-89
2022/07/27 07:03:49;;;;;;;2.20;1.77;;;;;;;;;;4959565;28;20544;-87
2022/07/27 07:06:15;;;;;;;2.03;1.90;;;;;;;;;;4976230;28;20444;-89
2022/07/27 07:08:41;;;;;;;0.97;0.97;;;;;;;;;;4987970;28;20436;-89
2022/07/27 07:11:16;;;;;;;2.60;1.81;;;;;;;;;;4940433;28;10001417;-90
2022/07/27 07:13:42;;;;;;;2.47;1.90;;;;;;;;;;4974239;28;20486;-90
2022/07/27 07:16:08;;;;;;;1.50;1.50;;;;;;;;;;4959397;28;20440;-89
2022/07/27 07:18:38;;;;;;;1.60;1.60;;;;;;;;;;4992787;28;20487;-90
2022/07/27 07:21:04;;;;;;;2.83;1.27;;;;;;;;;;4965175;28;20530;-90
2022/07/27 07:23:30;;;;;;;1.07;1.07;;;;;;;;;;4994777;28;20439;-88
2022/07/27 07:25:56;;;;;;;3.07;1.47;;;;;;;;;;4991224;28;20530;-88
2022/07/27 07:28:22;;;;;;;1.53;1.53;;;;;;;;;;4983947;28;20829;-87
2022/07/27 07:30:49;;;;;;;1.60;1.10;;;;;;;;;;4992270;28;20429;-87
2022/07/27 07:33:15;;;;;;;1.93;1.53;;;;;;;;;;4992895;28;20990;-87
2022/07/27 07:35:42;;;;;;;2.67;1.30;;;;;;;;;;4966013;28;20474;-86
2022/07/27 07:38:08;;;;;;;3.40;3.20;;;;;;;;;;4968203;28;20492;-86
2022/07/27 07:40:34;;;;;;;1.57;1.57;;;;;;;;;;4975400;28;20460;-88
2022/07/27 07:43:01;;;;;;;1.73;1.70;;;;;;;;;;4984927;28;20468;-87
2022/07/27 07:45:28;;;;;;;1.90;1.90;;;;;;;;;;4980327;28;20897;-88
2022/07/27 07:47:55;;;;;;;3.33;2.03;;;;;;;;;;4981932;28;21005;-88
2022/07/27 07:50:21;;;;;;;1.83;1.83;;;;;;;;;;4993762;28;20462;-87
2022/07/27 07:52:48;;;;;;;3.13;2.30;;;;;;;;;;4982050;28;20502;-87
2022/07/27 07:55:14;;;;;;;4.00;2.37;;;;;;;;;;4998916;28;20443;-87
2022/07/27 07:57:40;;;;;;;1.60;1.43;;;;;;;;;;4999406;28;20583;-88
2022/07/27 08:00:08;;;;;;;2.43;1.80;;;;;;;;;;4973215;28;20460;-87
2022/07/27 08:02:42;;;;;;;1.70;1.70;;;;;;;;;;4974084;28;20475;-88
2022/07/27 08:05:08;;;;;;;2.10;2.10;;;;;;;;;;4982593;28;20456;-89
2022/07/27 08:07:36;;;;;;;2.90;1.83;;;;;;;;;;4977910;28;20544;-89
2022/07/27 08:25:29;;;;;;;1.53;1.53;;;;;;;;;;5164861;23;20498;-87
2022/07/27 08:27:56;;;;;;;1.90;1.80;;;;;;;;;;4998037;28;20793;-87
2022/07/27 08:30:23;;;;;;;3.13;1.70;;;;;;;;;;5004508;28;20550;-86
2022/07/27 08:32:53;;;;;;;2.00;2.00;;;;;;;;;;5012719;28;21015;-88
2022/07/27 08:35:20;;;;;;;2.20;2.10;;;;;;;;;;5013553;28;21032;-87
2022/07/27 08:37:47;;;;;;;3.30;1.90;;;;;;;;;;5003510;28;20443;-87
2022/07/27 08:40:13;;;;;;;2.10;2.00;;;;;;;;;;5010038;28;20451;-87
2022/07/27 08:42:43;;;;;;;2.10;1.57;;;;;;;;;;5012784;28;20985;-87
2022/07/27 08:45:10;;;;;;;3.07;1.33;;;;;;;;;;5009028;28;20746;-87
2022/07/27 08:47:38;;;;;;;1.77;1.70;;;;;;;;;;5003545;28;20764;-86
2022/07/27 08:50:04;;;;;;;2.10;1.37;;;;;;;;;;5005968;28;20443;-88
2022/07/27 08:52:31;;;;;;;1.20;1.20;;;;;;;;;;4999980;28;20544;-86
2022/07/27 08:55:00;;;;;;;2.43;1.33;;;;;;;;;;5007357;28;20877;-85
2022/07/27 08:57:26;;;;;;;1.10;1.10;;;;;;;;;;4656679;28;10000020;-88
2022/07/27 08:59:55;;;;;;;1.53;1.43;;;;;;;;;;5004035;28;20204;-86
2022/07/27 09:02:22;;;;;;;1.23;1.13;;;;;;;;;;4999079;28;20483;-87
2022/07/27 09:04:48;;;;;;;2.00;1.40;;;;;;;;;;5000643;28;20459;-86
2022/07/27 09:07:26;;;;;;;2.13;1.23;;;;;;;;;;4999530;28;20424;-87
2022/07/27 09:09:53;;;;;;;1.20;1.20;;;;;;;;;;5003036;28;20878;-87
2022/07/27 09:12:26;;;;;;;1.70;1.57;;;;;;;;;;4997705;28;20429;-86
2022/07/27 09:15:02;;;;;;;2.30;1.13;;;;;;;;;;5006730;28;20727;-88
2022/07/27 09:17:28;;;;;;;1.10;1.10;;;;;;;;;;5001052;28;20560;-87
2022/07/27 09:19:58;;;;;;;2.10;1.73;;;;;;;;;;4996129;28;20444;-87
2022/07/27 09:22:43;;;;;;;1.50;1.40;;;;;;;;;;5000815;28;20467;-86
2022/07/27 09:25:10;;;;;;;6.37;1.50;;;;;;;;;;4996339;28;20459;-87
2022/07/27 09:27:36;;;;;;;1.83;1.20;;;;;;;;;;5000744;28;21034;-86
2022/07/27 09:30:06;;;;;;;3.80;1.90;;;;;;;;;;4995445;28;20509;-87
2022/07/27 09:32:32;;;;;;;1.13;0.97;;;;;;;;;;4991924;28;20427;-87
2022/07/27 09:34:58;;;;;;;1.33;1.13;;;;;;;;;;5002851;28;20842;-87
2022/07/27 09:37:25;;;;;;;1.83;1.80;;;;;;;;;;5013348;28;20423;-87
2022/07/27 09:40:09;;;;;;;1.20;1.20;;;;;;;;;;5000290;28;20471;-87
2022/07/27 09:42:35;;;;;;;1.93;1.77;;;;;;;;;;5008615;28;20527;-85
2022/07/27 09:45:01;;;;;;;1.50;1.40;;;;;;;;;;5007656;28;20462;-87
2022/07/27 09:47:28;;;;;;;1.53;1.43;;;;;;;;;;5016737;28;20415;-87
2022/07/27 09:50:17;;;;;;;1.97;1.57;;;;;;;;;;5014874;28;20428;-86
2022/07/27 09:52:44;;;;;;;1.30;1.30;;;;;;;;;;4998781;28;20503;-87
2022/07/27 09:55:10;;;;;;;1.40;1.40;;;;;;;;;;5027635;28;20431;-87
2022/07/27 09:57:53;;;;;;;2.03;1.83;;;;;;;;;;5031335;28;20859;-84
2022/07/27 10:00:20;;;;;;;1.70;1.60;;;;;;;;;;5018792;28;20455;-83
2022/07/27 10:02:48;;;;;;;2.57;1.77;;;;;;;;;;5025775;28;20466;-85
2022/07/27 10:05:18;;;;;;;3.17;1.90;;;;;;;;;;5014968;28;20459;-85
2022/07/27 10:07:44;;;;;;;1.70;1.60;;;;;;;;;;5002494;28;20598;-85
2022/07/27 10:10:13;;;;;;;3.70;3.40;;;;;;;;;;5013169;28;20480;-86
2022/07/27 10:12:40;;;;;;;1.73;1.67;;;;;;;;;;5015195;28;20424;-86
2022/07/27 10:15:06;;;;;;;2.27;1.93;;;;;;;;;;5016243;28;20458;-87
2022/07/27 10:17:33;;;;;;;3.17;1.60;;;;;;;;;;5021116;28;20419;-85
2022/07/27 10:20:02;;;;;;;1.83;1.50;;;;;;;;;;5017721;28;20431;-87
2022/07/27 10:22:47;;;;;;;2.00;1.90;;;;;;;;;;5018490;28;20467;-87
2022/07/27 10:25:13;;;;;;;2.97;2.10;;;;;;;;;;5008063;28;20452;-85
2022/07/27 10:27:40;;;;;;;2.10;1.80;;;;;;;;;;5016194;28;20889;-86
2022/07/27 10:30:06;;;;;;;1.50;1.50;;;;;;;;;;5011330;28;20451;-86
2022/07/27 10:32:33;;;;;;;1.27;1.27;;;;;;;;;;5013292;28;20795;-86
2022/07/27 10:35:01;;;;;;;1.23;1.20;;;;;;;;;;5013502;28;21096;-85
2022/07/27 10:37:34;;;;;;;1.10;1.10;;;;;;;;;;5016435;28;20427;-86
2022/07/27 10:42:45;;;;;;;3.60;2.20;;;;;;;;;;5009458;28;20996;-86
2022/07/27 10:45:12;;;;;;;1.53;1.43;;;;;;;;;;5008135;28;20432;-86
2022/07/27 10:47:46;;;;;;;1.43;1.33;;;;;;;;;;5007997;28;20442;-86
2022/07/27 10:50:15;;;;;;;1.90;1.33;;;;;;;;;;5009131;28;20439;-84
2022/07/27 10:52:41;;;;;;;2.43;2.23;;;;;;;;;;4995942;28;20460;-85
2022/07/27 10:55:07;;;;;;;1.33;1.30;;;;;;;;;;5007119;28;20442;-85
2022/07/27 10:57:35;;;;;;;2.03;0.97;;;;;;;;;;5009291;28;20443;-88
2022/07/27 11:00:07;;;;;;;1.50;1.40;;;;;;;;;;5006702;28;20443;-85
2022/07/27 11:02:38;;;;;;;1.00;1.00;;;;;;;;;;5010501;28;21164;-86
2022/07/27 11:05:04;;;;;;;1.13;1.03;;;;;;;;;;5007376;28;20432;-86
2022/07/27 11:07:31;;;;;;;3.50;1.20;;;;;;;;;;4998579;28;20419;-87
2022/07/27 11:10:00;;;;;;;1.50;1.40;;;;;;;;;;5008964;28;20432;-89
2022/07/27 11:12:28;;;;;;;2.00;1.80;;;;;;;;;;5006777;28;20416;-87
2022/07/27 11:14:55;;;;;;;1.50;1.27;;;;;;;;;;5006196;28;20432;-87
2022/07/27 11:17:23;;;;;;;0.93;0.87;;;;;;;;;;5011541;28;20417;-89
2022/07/27 11:19:57;;;;;;;1.27;1.03;;;;;;;;;;5014894;28;20493;-89
2022/07/27 11:22:29;;;;;;;1.13;1.13;;;;;;;;;;5021269;28;20467;-90
2022/07/27 11:24:55;;;;;;;1.17;1.17;;;;;;;;;;4671102;28;9999883;-91
2022/07/27 11:27:21;;;;;;;1.07;1.07;;;;;;;;;;5025389;28;20203;-91
2022/07/27 11:29:47;;;;;;;1.50;1.50;;;;;;;;;;5011882;28;20447;-87
2022/07/27 11:32:18;;;;;;;1.23;1.13;;;;;;;;;;5030035;28;20423;-90
2022/07/27 11:34:45;;;;;;;1.20;1.10;;;;;;;;;;5080433;23;20525;-87
2022/07/27 11:37:12;;;;;;;1.20;1.20;;;;;;;;;;5042265;28;20461;-91
2022/07/27 11:39:38;;;;;;;1.13;1.13;;;;;;;;;;5016637;28;21033;-92
2022/07/27 11:42:05;;;;;;;1.67;1.57;;;;;;;;;;5046862;28;20466;-92
2022/07/27 11:44:31;;;;;;;1.20;1.20;;;;;;;;;;5017605;28;20452;-92
2022/07/27 11:47:01;;;;;;;2.07;1.00;;;;;;;;;;5030876;28;20447;-89
2022/07/27 11:49:32;;;;;;;1.33;1.23;;;;;;;;;;5025605;28;20460;-91
2022/07/27 11:52:00;;;;;;;1.17;1.17;;;;;;;;;;5013777;28;20432;-86
2022/07/27 11:54:35;;;;;;;0.70;0.70;;;;;;;;;;5021035;28;20436;-90
2022/07/27 11:57:03;;;;;;;2.40;0.90;;;;;;;;;;5016232;28;20427;-89
2022/07/27 11:59:31;;;;;;;1.00;1.00;;;;;;;;;;5032641;28;20423;-91
2022/07/27 12:02:20;;;;;;;0.80;0.67;;;;;;;;;;5033984;28;20451;-90
2022/07/27 12:04:48;;;;;;;0.97;0.87;;;;;;;;;;5015521;28;20463;-92
2022/07/27 12:07:18;;;;;;;2.30;1.10;;;;;;;;;;5022915;28;20447;-89
2022/07/27 12:09:58;;;;;;;1.20;1.20;;;;;;;;;;5021160;28;20448;-89
2022/07/27 12:12:28;;;;;;;1.80;1.70;;;;;;;;;;5014588;28;20555;-92
2022/07/27 12:14:58;;;;;;;1.50;1.50;;;;;;;;;;5048333;28;20522;-92
2022/07/27 12:17:34;;;;;;;0.60;0.60;;;;;;;;;;5043819;28;20427;-93
2022/07/27 12:20:07;;;;;;;1.00;0.90;;;;;;;;;;5050116;28;20426;-89
2022/07/27 12:22:55;;;;;;;1.70;1.00;;;;;;;;;;5050937;28;20466;-91
2022/07/27 12:28:03;;;;;;;1.10;1.10;;;;;;;;;;2588636;23;20490;-90
2022/07/27 12:30:36;;;;;;;4.77;1.00;;;;;;;;;;5009987;28;20455;-87
2022/07/27 12:33:04;;;;;;;2.30;0.93;;;;;;;;;;4994453;28;20432;-88
2022/07/27 12:35:32;;;;;;;0.87;0.87;;;;;;;;;;5010944;28;20473;-90
2022/07/27 12:38:00;;;;;;;1.23;0.90;;;;;;;;;;5011976;28;20443;-93
2022/07/27 12:40:27;;;;;;;1.17;1.07;;;;;;;;;;5028825;28;20419;-92
2022/07/27 12:43:19;;;;;;;0.93;0.93;;;;;;;;;;5015673;28;20471;-92
2022/07/27 12:45:55;;;;;;;0.97;0.97;;;;;;;;;;5014548;28;20439;-89
2022/07/27 12:48:44;;;;;;;1.00;1.00;;;;;;;;;;5013737;28;20450;-92
2022/07/27 12:51:32;;;;;;;1.30;1.30;;;;;;;;;;4998021;28;20413;-90
2022/07/27 12:54:08;;;;;;;1.07;1.07;;;;;;;;;;5026922;23;20496;-87
2022/07/27 12:56:43;;;;;;;1.80;1.17;;;;;;;;;;5011484;28;20478;-90
2022/07/27 12:59:16;;;;;;;1.30;1.20;;;;;;;;;;5007063;28;20432;-92
2022/07/27 13:01:49;;;;;;;1.80;1.10;;;;;;;;;;4987099;28;20523;-93
2022/07/27 13:04:25;;;;;;;4.57;1.40;;;;;;;;;;5021349;28;20494;-91
2022/07/27 13:06:54;;;;;;;1.48;1.48;;;;;;;;;;4773105;28;10000497;-90
2022/07/27 13:09:29;;;;;;;3.50;1.43;;;;;;;;;;5000181;28;20516;-91
2022/07/27 13:11:55;;;;;;;1.60;1.27;;;;;;;;;;5000790;28;20561;-91
2022/07/27 13:14:24;;;;;;;1.40;1.40;;;;;;;;;;5003565;28;20439;-88
2022/07/27 13:17:09;;;;;;;1.17;1.17;;;;;;;;;;5011770;28;20501;-89
2022/07/27 13:19:35;;;;;;;1.37;1.37;;;;;;;;;;5006152;28;20466;-90
2022/07/27 13:22:04;;;;;;;2.50;1.50;;;;;;;;;;4997207;28;20482;-91
2022/07/27 13:24:34;;;;;;;1.20;0.97;;;;;;;;;;4994831;28;20544;-89
2022/07/27 13:27:00;;;;;;;2.37;1.47;;;;;;;;;;5004036;28;20435;-91
2022/07/27 13:29:27;;;;;;;2.60;1.43;;;;;;;;;;5017639;28;20423;-89
2022/07/27 13:31:53;;;;;;;3.20;1.60;;;;;;;;;;5006372;28;20490;-90
2022/07/27 13:34:19;;;;;;;1.60;1.50;;;;;;;;;;5011438;28;20437;-92
2022/07/27 13:36:45;;;;;;;1.23;1.23;;;;;;;;;;5001364;28;20439;-88
2022/07/27 13:39:12;;;;;;;2.30;1.60;;;;;;;;;;5003378;28;20412;-91
2022/07/27 13:41:38;;;;;;;1.60;1.60;;;;;;;;;;5006664;28;20478;-90
2022/07/27 13:44:06;;;;;;;1.57;1.47;;;;;;;;;;5011642;28;20438;-90
2022/07/27 13:46:32;;;;;;;1.53;1.50;;;;;;;;;;5009596;28;20438;-90
2022/07/27 13:48:58;;;;;;;11.87;11.10;;;;;;;;;;5009741;28;20478;-89
2022/07/27 13:51:24;;;;;;;1.43;1.43;;;;;;;;;;5011461;28;20486;-88
2022/07/27 13:53:50;;;;;;;2.50;2.03;;;;;;;;;;5004089;28;20459;-89
2022/07/27 13:56:25;;;;;;;1.57;1.57;;;;;;;;;;5002135;28;20511;-89
2022/07/27 13:58:51;;;;;;;1.60;1.43;;;;;;;;;;4988730;28;20431;-90
2022/07/27 14:01:17;;;;;;;1.43;1.23;;;;;;;;;;5018971;28;20456;-89
2022/07/27 14:03:43;;;;;;;3.63;1.40;;;;;;;;;;5010312;28;20443;-88
2022/07/27 14:06:15;;;;;;;1.70;1.40;;;;;;;;;;5012952;28;20454;-89
2022/07/27 14:08:41;;;;;;;7.57;5.87;;;;;;;;;;5012452;28;20400;-90
2022/07/27 14:11:07;;;;;;;1.73;1.63;;;;;;;;;;5007980;28;20432;-89
2022/07/27 14:13:33;;;;;;;2.10;1.77;;;;;;;;;;5031188;28;20435;-89
2022/07/27 14:16:00;;;;;;;1.90;1.90;;;;;;;;;;5017828;28;20439;-89
2022/07/27 14:18:31;;;;;;;3.80;3.00;;;;;;;;;;5015190;28;20419;-87
2022/07/27 14:21:03;;;;;;;1.70;1.70;;;;;;;;;;5017137;28;20426;-89
2022/07/27 14:23:59;;;;;;;2.87;1.17;;;;;;;;;;5019172;28;20502;-91
2022/07/27 14:26:25;;;;;;;1.60;0.90;;;;;;;;;;4995993;28;20466;-88
2022/07/27 14:28:53;;;;;;;1.63;1.10;;;;;;;;;;4998842;28;20428;-89
2022/07/27 14:31:19;;;;;;;1.20;1.10;;;;;;;;;;4997373;28;20454;-91
2022/07/27 14:33:45;;;;;;;1.40;1.30;;;;;;;;;;4998350;28;20492;-90
2022/07/27 14:36:19;;;;;;;2.10;1.20;;;;;;;;;;5014490;28;20419;-90
2022/07/27 14:38:45;;;;;;;1.57;1.47;;;;;;;;;;4998192;28;20941;-90
2022/07/27 14:41:11;;;;;;;1.10;1.10;;;;;;;;;;5012822;28;20452;-89
2022/07/27 14:43:37;;;;;;;4.53;1.63;;;;;;;;;;4996054;28;20606;-90
2022/07/27 14:46:03;;;;;;;1.23;1.23;;;;;;;;;;4994200;28;20487;-89
2022/07/27 14:48:29;;;;;;;1.17;1.17;;;;;;;;;;4994852;28;20416;-86
2022/07/27 14:50:55;;;;;;;1.30;1.30;;;;;;;;;;5013423;28;20751;-88
2022/07/27 14:53:21;;;;;;;2.27;2.03;;;;;;;;;;4996366;28;20525;-88
2022/07/27 14:55:47;;;;;;;2.13;1.97;;;;;;;;;;5017401;28;20467;-91
2022/07/27 14:58:13;;;;;;;1.97;1.87;;;;;;;;;;5003222;28;20419;-88
2022/07/27 15:00:39;;;;;;;2.20;1.70;;;;;;;;;;5002858;28;20431;-90
2022/07/27 15:03:06;;;;;;;1.53;1.43;;;;;;;;;;5023161;28;20478;-91
2022/07/27 15:05:32;;;;;;;2.73;2.57;;;;;;;;;;5019972;28;20428;-89
2022/07/27 15:07:58;;;;;;;1.30;1.20;;;;;;;;;;5008378;28;20427;-90
2022/07/27 15:10:24;;;;;;;1.47;1.47;;;;;;;;;;5009293;28;20423;-92
2022/07/27 15:12:51;;;;;;;2.33;2.23;;;;;;;;;;5009729;28;20450;-86